PWSweather.com
Personal Weather Stations
Station Observations
KNJROCKY2
Rocky Hill, NJ 08553

Rocky Hill, NJ 08553

Lat: 40.402, Lon: -74.639

Elevation: 125

Station Type: DAVIS WX200

http://www.tw-zone.com/page3.htm

High Low Average
Temperature 51.8°F11.0°C 28.4°F-2.0°C 40.9°F4.9°C
Dew Point 32.7°F0.4°C 20.6°F-6.3°C 23.9°F-4.5°C
Winds 9.0 mph 14.5 kmh Calm Calm 3.0 mph SW4.8 kmh SW
Wind Gusts 14.0 mph22.5 kmh -- 4.0 mph6.4 kmh
Humidity 78% 34% 53%
Pressure 30.12 in1020.0 mb 29.90 in1012.5 mb -
Precipitation 0.00 in0.0 mm - -
Hour Temp Dew Point Humidity Winds Wind Gusts Pressure Precip Precip Rate Daily Precip Total
12:00 AM 31.7°F-0.2°C 26.3°F-3.2°C 80% Calm Calm -- 30.03 in1016.9 mb 0.00 in0.0 mm 0.00 in/hr0.0 mm/hr 0.00 in0.0 mm
12:30 AM 31.4°F-0.3°C 26.0°F-3.3°C 80% Calm Calm -- 30.03 in1016.9 mb 0.00 in0.0 mm 0.00 in/hr0.0 mm/hr 0.00 in0.0 mm
01:00 AM 31.7°F-0.2°C 25.6°F-3.6°C 78% 1.0 mph NW1.6 kmh NW 2.0 mph3.2 kmh 30.04 in1017.3 mb 0.00 in0.0 mm 0.00 in/hr0.0 mm/hr 0.00 in0.0 mm
01:30 AM 33.9°F1.1°C 25.8°F-3.4°C 72% Calm Calm 1.0 mph1.6 kmh 30.05 in1017.6 mb 0.00 in0.0 mm 0.00 in/hr0.0 mm/hr 0.00 in0.0 mm
02:00 AM 34.6°F1.4°C 25.8°F-3.4°C 70% Calm Calm -- 30.06 in1017.9 mb 0.00 in0.0 mm 0.00 in/hr0.0 mm/hr 0.00 in0.0 mm
02:30 AM 35.8°F2.1°C 24.8°F-4.0°C 64% 3.0 mph W4.8 kmh W 4.0 mph6.4 kmh 30.08 in1018.6 mb 0.00 in0.0 mm 0.00 in/hr0.0 mm/hr 0.00 in0.0 mm
03:00 AM 35.5°F1.9°C 24.9°F-3.9°C 65% 1.0 mph WNW1.6 kmh WNW 1.0 mph1.6 kmh 30.09 in1019.0 mb 0.00 in0.0 mm 0.00 in/hr0.0 mm/hr 0.00 in0.0 mm
03:30 AM 35.1°F1.7°C 23.8°F-4.6°C 63% 3.0 mph WNW4.8 kmh WNW 4.0 mph6.4 kmh 30.09 in1019.0 mb 0.00 in0.0 mm 0.00 in/hr0.0 mm/hr 0.00 in0.0 mm
04:00 AM 34.8°F1.6°C 23.1°F-4.9°C 62% 3.0 mph NW4.8 kmh NW 4.0 mph6.4 kmh 30.09 in1019.0 mb 0.00 in0.0 mm 0.00 in/hr0.0 mm/hr 0.00 in0.0 mm
04:30 AM 35.6°F2.0°C 22.3°F-5.4°C 58% 3.0 mph W4.8 kmh W 4.0 mph6.4 kmh 30.09 in1019.0 mb 0.00 in0.0 mm 0.00 in/hr0.0 mm/hr 0.00 in0.0 mm
05:00 AM 35.4°F1.9°C 22.5°F-5.3°C 59% 2.0 mph W3.2 kmh W 3.0 mph4.8 kmh 30.10 in1019.3 mb 0.00 in0.0 mm 0.00 in/hr0.0 mm/hr 0.00 in0.0 mm
05:30 AM 35.1°F1.7°C 22.6°F-5.2°C 60% 2.0 mph W3.2 kmh W 3.0 mph4.8 kmh 30.11 in1019.6 mb 0.00 in0.0 mm 0.00 in/hr0.0 mm/hr 0.00 in0.0 mm
06:00 AM 34.6°F1.4°C 22.2°F-5.4°C 60% 1.0 mph WNW1.6 kmh WNW 3.0 mph4.8 kmh 30.12 in1020.0 mb 0.00 in0.0 mm 0.00 in/hr0.0 mm/hr 0.00 in0.0 mm
06:30 AM 34.3°F1.3°C 22.3°F-5.4°C 61% 2.0 mph W3.2 kmh W 2.0 mph3.2 kmh 30.12 in1020.0 mb 0.00 in0.0 mm 0.00 in/hr0.0 mm/hr 0.00 in0.0 mm
07:00 AM 32.8°F0.4°C 22.7°F-5.2°C 66% Calm Calm -- 30.11 in1019.6 mb 0.00 in0.0 mm 0.00 in/hr0.0 mm/hr 0.00 in0.0 mm
07:30 AM 30.0°F-1.1°C 23.7°F-4.6°C 77% 1.0 mph ESE1.6 kmh ESE 1.0 mph1.6 kmh 30.12 in1020.0 mb 0.00 in0.0 mm 0.00 in/hr0.0 mm/hr 0.00 in0.0 mm
08:00 AM 28.4°F-2.0°C 21.8°F-5.7°C 76% Calm Calm -- 30.12 in1020.0 mb 0.00 in0.0 mm 0.00 in/hr0.0 mm/hr 0.00 in0.0 mm
08:30 AM 28.6°F-1.9°C 22.6°F-5.2°C 78% Calm Calm -- 30.12 in1020.0 mb 0.00 in0.0 mm 0.00 in/hr0.0 mm/hr 0.00 in0.0 mm
09:00 AM 30.5°F-0.8°C 23.5°F-4.7°C 75% Calm Calm -- 30.12 in1020.0 mb 0.00 in0.0 mm 0.00 in/hr0.0 mm/hr 0.00 in0.0 mm
09:30 AM 35.7°F2.1°C 24.7°F-4.1°C 64% Calm Calm -- 30.10 in1019.3 mb 0.00 in0.0 mm 0.00 in/hr0.0 mm/hr 0.00 in0.0 mm
10:00 AM 40.9°F4.9°C 23.2°F-4.9°C 49% 1.0 mph NE1.6 kmh NE 2.0 mph3.2 kmh 30.09 in1019.0 mb 0.00 in0.0 mm 0.00 in/hr0.0 mm/hr 0.00 in0.0 mm
10:30 AM 44.7°F7.1°C 22.5°F-5.3°C 41% 1.0 mph NNW1.6 kmh NNW 1.0 mph1.6 kmh 30.09 in1019.0 mb 0.00 in0.0 mm 0.00 in/hr0.0 mm/hr 0.00 in0.0 mm
11:00 AM 45.8°F7.7°C 21.0°F-6.1°C 37% 2.0 mph SSW3.2 kmh SSW 3.0 mph4.8 kmh 30.08 in1018.6 mb 0.00 in0.0 mm 0.00 in/hr0.0 mm/hr 0.00 in0.0 mm
11:30 AM 44.9°F7.2°C 22.6°F-5.2°C 41% 1.0 mph WNW1.6 kmh WNW 2.0 mph3.2 kmh 30.07 in1018.3 mb 0.00 in0.0 mm 0.00 in/hr0.0 mm/hr 0.00 in0.0 mm
12:00 PM 44.6°F7.0°C 20.6°F-6.3°C 38% 3.0 mph SW4.8 kmh SW 3.0 mph4.8 kmh 30.07 in1018.3 mb 0.00 in0.0 mm 0.00 in/hr0.0 mm/hr 0.00 in0.0 mm
12:30 PM 45.5°F7.5°C 22.0°F-5.6°C 39% 2.0 mph SSW3.2 kmh SSW 2.0 mph3.2 kmh 30.06 in1017.9 mb 0.00 in0.0 mm 0.00 in/hr0.0 mm/hr 0.00 in0.0 mm
01:00 PM 45.2°F7.3°C 21.7°F-5.7°C 39% 9.0 mph SW14.5 kmh SW 9.0 mph14.5 kmh 30.03 in1016.9 mb 0.00 in0.0 mm 0.00 in/hr0.0 mm/hr 0.00 in0.0 mm
01:30 PM 46.7°F8.2°C 21.2°F-6.0°C 36% 9.0 mph SSW14.5 kmh SSW 9.0 mph14.5 kmh 30.01 in1016.3 mb 0.00 in0.0 mm 0.00 in/hr0.0 mm/hr 0.00 in0.0 mm
02:00 PM 47.9°F8.8°C 21.6°F-5.8°C 35% 8.0 mph SE12.9 kmh SE 12.0 mph19.3 kmh 29.99 in1015.6 mb 0.00 in0.0 mm 0.00 in/hr0.0 mm/hr 0.00 in0.0 mm
02:30 PM 49.5°F9.7°C 23.7°F-4.6°C 36% 3.0 mph S4.8 kmh S 4.0 mph6.4 kmh 29.97 in1014.9 mb 0.00 in0.0 mm 0.00 in/hr0.0 mm/hr 0.00 in0.0 mm
03:00 PM 50.7°F10.4°C 24.1°F-4.4°C 35% 8.0 mph SW12.9 kmh SW 9.0 mph14.5 kmh 29.96 in1014.6 mb 0.00 in0.0 mm 0.00 in/hr0.0 mm/hr 0.00 in0.0 mm
03:30 PM 49.3°F9.6°C 23.5°F-4.7°C 36% 4.0 mph WSW6.4 kmh WSW 4.0 mph6.4 kmh 29.93 in1013.5 mb 0.00 in0.0 mm 0.00 in/hr0.0 mm/hr 0.00 in0.0 mm
04:00 PM 50.1°F10.1°C 22.8°F-5.1°C 34% 2.0 mph SSW3.2 kmh SSW 5.0 mph8.0 kmh 29.91 in1012.9 mb 0.00 in0.0 mm 0.00 in/hr0.0 mm/hr 0.00 in0.0 mm
04:30 PM 49.9°F9.9°C 24.0°F-4.4°C 36% 4.0 mph SSW6.4 kmh SSW 4.0 mph6.4 kmh 29.90 in1012.5 mb 0.00 in0.0 mm 0.00 in/hr0.0 mm/hr 0.00 in0.0 mm
05:00 PM 51.8°F11.0°C 25.0°F-3.9°C 35% 2.0 mph S3.2 kmh S 2.0 mph3.2 kmh 29.90 in1012.5 mb 0.00 in0.0 mm 0.00 in/hr0.0 mm/hr 0.00 in0.0 mm
05:30 PM 49.6°F9.8°C 25.1°F-3.8°C 38% 2.0 mph SW3.2 kmh SW 5.0 mph8.0 kmh 29.90 in1012.5 mb 0.00 in0.0 mm 0.00 in/hr0.0 mm/hr 0.00 in0.0 mm
06:00 PM 49.0°F9.4°C 26.9°F-2.8°C 42% 2.0 mph S3.2 kmh S 3.0 mph4.8 kmh 29.91 in1012.9 mb 0.00 in0.0 mm 0.00 in/hr0.0 mm/hr 0.00 in0.0 mm
06:30 PM 48.9°F9.4°C 28.0°F-2.2°C 44% 1.0 mph SW1.6 kmh SW 2.0 mph3.2 kmh 29.92 in1013.2 mb 0.00 in0.0 mm 0.00 in/hr0.0 mm/hr 0.00 in0.0 mm
07:00 PM 49.2°F9.6°C 30.4°F-0.9°C 48% 8.0 mph NW12.9 kmh NW 8.0 mph12.9 kmh 29.95 in1014.2 mb 0.00 in0.0 mm 0.00 in/hr0.0 mm/hr 0.00 in0.0 mm
07:30 PM 48.1°F8.9°C 32.7°F0.4°C 55% 8.0 mph NW12.9 kmh NW 14.0 mph22.5 kmh 29.99 in1015.6 mb 0.00 in0.0 mm 0.00 in/hr0.0 mm/hr 0.00 in0.0 mm
08:00 PM 43.6°F6.4°C 36.9°F2.7°C 77% 6.0 mph NW9.7 kmh NW 6.0 mph9.7 kmh 30.02 in1016.6 mb 0.00 in0.0 mm 0.00 in/hr0.0 mm/hr 0.00 in0.0 mm
08:30 PM 41.2°F5.1°C 37.3°F2.9°C 86% 1.0 mph W1.6 kmh W 2.0 mph3.2 kmh 30.01 in1016.3 mb 0.03 in0.8 mm 0.06 in/hr1.5 mm/hr 0.03 in0.8 mm
09:00 PM 40.7°F4.8°C 37.1°F2.8°C 87% 1.0 mph W1.6 kmh W 1.0 mph1.6 kmh 30.01 in1016.3 mb 0.03 in0.8 mm 0.00 in/hr0.0 mm/hr 0.03 in0.8 mm
09:30 PM 40.7°F4.8°C 37.4°F3.0°C 88% Calm Calm -- 30.02 in1016.6 mb 0.00 in0.0 mm 0.00 in/hr0.0 mm/hr 0.03 in0.8 mm
10:00 PM 40.0°F4.4°C 37.0°F2.8°C 89% Calm Calm -- 30.02 in1016.6 mb 0.00 in0.0 mm 0.00 in/hr0.0 mm/hr 0.03 in0.8 mm
10:30 PM 38.8°F3.8°C 36.1°F2.3°C 90% 2.0 mph NW3.2 kmh NW 3.0 mph4.8 kmh 30.04 in1017.3 mb 0.00 in0.0 mm 0.00 in/hr0.0 mm/hr 0.03 in0.8 mm
11:00 PM 37.9°F3.3°C 34.4°F1.3°C 87% 1.0 mph S1.6 kmh S 3.0 mph4.8 kmh 30.05 in1017.6 mb 0.00 in0.0 mm 0.00 in/hr0.0 mm/hr 0.03 in0.8 mm
11:30 PM 36.8°F2.7°C 33.3°F0.7°C 87% 2.0 mph W3.2 kmh W 2.0 mph3.2 kmh 30.06 in1017.9 mb 0.00 in0.0 mm 0.00 in/hr0.0 mm/hr 0.03 in0.8 mm